Overview Statistics Trail Chart Weather Telemetry Raw packets
 

This is the latest recevied weather packets stored in our database for station/object LU2DKV-10. If no packets are shown the sender has not sent any weather packets the latest 10 day(s).

<< 4 5 6 7 8 9 10 >>
Time Temp. Humidity Pressure Rain* Wind** Luminosity Snow
1788375952 21.67° C 57% 1008 hPa - - 0 W/m² -
1788374128 21.67° C 58% 1008 hPa - - 0 W/m² -
1788372306 21.67° C 54% 1009 hPa - - 0 W/m² -
1788370482 21.11° C 62% 1009 hPa - - 0 W/m² -
1788368658 20° C 70% 1010 hPa - - 0 W/m² -
1788366834 18.89° C 77% 1011 hPa - - 0 W/m² -
1788366164 18.89° C 78% 1012 hPa - - 0 W/m² -
1788365495 18.33° C 78% 1012 hPa - - 0 W/m² -
1788363479 18.33° C 79% 1013 hPa - - 0 W/m² -
1788361656 17.78° C 80% 1013 hPa - - 0 W/m² -
1788359833 17.22° C 80% 1014 hPa - - 0 W/m² -
1788358010 16.67° C 80% 1014 hPa - - 0 W/m² -
1788356187 16.67° C 78% 1014 hPa - - 0 W/m² -
1788354364 16.67° C 79% 1015 hPa - - 0 W/m² -
1788352541 16.11° C 84% 1016 hPa - - 0 W/m² -
1788347084 13.89° C 99% 1016 hPa - - 0 W/m² -
1788345264 13.89° C 99% 1016 hPa - - 0 W/m² -
1788343441 13.33° C 99% 1016 hPa - - 0 W/m² -
1788341618 13.33° C 99% 1016 hPa - - 0 W/m² -
1788339793 13.33° C 99% 1016 hPa - - 0 W/m² -
1788337971 13.33° C 99% 1016 hPa - - 0 W/m² -
1788336151 13.33° C 99% 1016 hPa - - 0 W/m² -
1788334326 13.33° C 90% 1016 hPa - - 0 W/m² -
1788332506 13.33° C 89% 1016 hPa - - 0 W/m² -
1788330661 12.78° C 91% 1017 hPa - - 0 W/m² -

* Rain since midnight (hover to see other rain measurements)
** Current wind speed in m/s (hover to see current wind gust speed)